메인 페이지
METAR-TAF:

METAR-TAF

공항 :

Elko, 네바다, 미국

위도: 40-49-30N, 경도: 115-47-30W, 고도: 1568m

현재 날씨관측

예보는 18 시간 31분 전, 14:56시(UTC)에 발표되었습니다.
남서8kt
온도 -11°C
습도 78%
기압 1016 hPa
시정: 16.1km
고도 3600ft 상공 흐림

METAR: KEKO 201456Z AUTO 22008KT 10SM OVC036 M11/M14 A3000 RMK AO2 SLP213 T11061139 51020 $

시각: 01:27 (09:27 UTC)

예보

예보는 21 시간 33분 전, 11:54시(UTC)에 발표되었습니다.
예보 대상 시간: 20일 12시부터 21일 12시까지 (UTC)
남남서7kt
시정: 10km
고도 2500ft 상공 구름 보통
고도 4500ft 상공 구름 많음
시계 내 소나기
20일 1800시부터 (UTC)
서남서6kt
시정: 10km
고도 4500ft 상공 구름 많음
21일 0200시부터 (UTC)
여러 방향의 바람 3kt
시정: 10km
고도 20000ft 상공 구름 보통
21일 0900시부터 (UTC)
동북동3kt
시정: 10km
고도 8000ft 상공 구름 많음

TAF: KEKO 201154Z 2012/2112 21007KT P6SM VCSH SCT025 BKN045 FM201800 24006KT P6SM BKN045 FM210200 VRB03KT P6SM SCT200 FM210900 07003KT P6SM BKN080

4,000개 이상의 공항 관측 자료 및 예보 (METAR 및 TAF 보고).

지도상에서 검색 가능한 기상관측소가 노란 점과 빨간 점으로 표시되어 있습니다.

기상관측소 명을 보려면 표시 위로 마우스를 이동하세요.

날씨 관측과 예보를 보려면 클릭하세요.

지도 변경 : 확대하려면 엑스 표시가 있는 녹색 버튼, 축소하려면 빼기 표시가 있는 녹색 버튼, 다음 페이지의 지도를 보려면 녹색 화살표를 클릭하세요.


METAR-TAF: